Terminal Aerodrome Forecast
Issued by NWS Lake Charles, LA

Home | Current Version | Previous Version | Text Only | Print | Product List | Glossary On
Versions: 1 2 3 4 5 6 7 8 9 10 11 12 13 14 15
000
FTUS44 KLCH 270500
TAFARA
TAF
KARA 270525Z 2706/2806 12010KT P6SM VCSH OVC007
      TEMPO 2706/2710 2SM SHRA BR
     FM271000 13009KT 5SM BR VCSH OVC003
      TEMPO 2710/2714 2SM SHRA BR
     FM271400 12009KT 4SM -SHRA BR VCTS OVC003CB
     FM271800 18011KT 4SM -TSRA BR OVC007CB=

USA.gov is the U.S. government's official web portal to all federal, state and local government web resources and services.